Time;durP1;ratioP1;P1;durP2;ratioP2;P2;SDS_P1;SDS_P2;PMS_P1;PMS_P2;Temp;Humidity;BMP_temperature;BMP_pressure;BME280_temperature;BME280_humidity;BME280_pressure;Samples;Min_cycle;Max_cycle;Signal;HPM_P1;HPM_P2
2023/08/10 00:00:34;;;;;;;10.38;5.07;;;;;;;13.48;94.27;101057.66;4939855;29;20474;-81
2023/08/10 00:03:39;;;;;;;10.40;4.70;;;;;;;13.41;94.88;101061.56;4939310;29;20065;-79
2023/08/10 00:06:45;;;;;;;9.85;4.88;;;;;;;13.44;94.56;101059.59;4926393;29;20051;-80
2023/08/10 00:09:48;;;;;;;11.68;4.90;;;;;;;13.36;94.97;101059.16;4938097;29;20042;-81
2023/08/10 00:12:53;;;;;;;9.18;4.78;;;;;;;13.37;95.41;101057.38;4937977;29;20119;-81
2023/08/10 00:15:59;;;;;;;11.88;4.97;;;;;;;13.39;95.60;101063.41;4938160;29;20122;-81
2023/08/10 00:19:04;;;;;;;16.05;5.53;;;;;;;13.36;96.27;101064.44;4938328;29;20566;-81
2023/08/10 00:22:09;;;;;;;9.60;5.22;;;;;;;13.37;96.46;101070.53;4937998;29;20121;-80
2023/08/10 00:25:14;;;;;;;9.98;5.70;;;;;;;13.38;96.10;101080.97;4937947;29;20054;-81
2023/08/10 00:28:17;;;;;;;12.13;6.13;;;;;;;13.39;96.20;101089.69;4926076;29;20470;-80
2023/08/10 00:31:20;;;;;;;14.32;5.20;;;;;;;13.36;96.15;101087.22;4937898;29;20058;-80
2023/08/10 00:34:23;;;;;;;13.13;4.93;;;;;;;13.49;95.58;101081.19;4925912;29;20094;-80
2023/08/10 00:37:28;;;;;;;13.70;5.00;;;;;;;13.59;94.95;101086.81;4937717;29;20106;-80
2023/08/10 00:40:31;;;;;;;14.63;4.57;;;;;;;13.53;95.10;101079.28;4926080;29;20413;-80
2023/08/10 00:43:37;;;;;;;13.57;5.07;;;;;;;13.67;94.31;101083.75;4937805;29;20104;-80
2023/08/10 00:46:41;;;;;;;9.63;3.80;;;;;;;13.75;93.14;101075.41;4926006;29;20062;-80
2023/08/10 00:49:44;;;;;;;10.10;3.97;;;;;;;13.71;92.94;101065.06;4924761;29;20484;-80
2023/08/10 00:52:48;;;;;;;11.27;5.63;;;;;;;13.53;94.89;101075.78;4925921;29;20516;-80
2023/08/10 00:55:53;;;;;;;12.40;4.72;;;;;;;13.53;94.99;101083.66;4937455;29;20413;-80
2023/08/10 00:58:57;;;;;;;7.82;5.18;;;;;;;13.44;95.78;101071.91;4937239;29;20051;-80
2023/08/10 01:02:05;;;;;;;11.65;4.97;;;;;;;13.35;96.35;101080.28;4937266;29;20095;-80
2023/08/10 01:05:12;;;;;;;12.13;6.28;;;;;;;13.30;96.45;101077.06;4937464;29;20046;-80
2023/08/10 01:08:34;;;;;;;11.07;5.65;;;;;;;13.29;96.63;101076.22;4925651;29;20143;-80
2023/08/10 01:11:54;;;;;;;13.20;5.68;;;;;;;13.25;97.10;101086.03;4936967;29;20126;-80
2023/08/10 01:15:26;;;;;;;10.88;4.97;;;;;;;13.25;97.55;101095.69;4937133;29;20059;-80
2023/08/10 01:18:38;;;;;;;9.60;5.60;;;;;;;13.32;97.10;101104.94;4936885;29;20177;-79
2023/08/10 01:22:00;;;;;;;10.13;4.80;;;;;;;13.29;97.10;101106.88;4937060;29;20055;-79
2023/08/10 01:25:11;;;;;;;11.03;4.80;;;;;;;13.31;96.89;101105.88;4936838;29;20102;-80
2023/08/10 01:28:14;;;;;;;12.23;4.43;;;;;;;13.37;96.46;101104.66;4936651;29;20326;-80
2023/08/10 01:31:18;;;;;;;5.35;3.72;;;;;;;13.37;95.63;101105.53;4936558;29;20103;-80
2023/08/10 01:34:22;;;;;;;8.13;3.30;;;;;;;13.42;95.17;101114.00;4936634;29;20054;-80
2023/08/10 01:37:30;;;;;;;10.48;4.00;;;;;;;13.36;95.51;101106.44;4914722;29;20050;-79
2023/08/10 01:40:39;;;;;;;9.45;3.45;;;;;;;13.38;95.77;101120.34;4924711;29;20082;-79
2023/08/10 01:43:42;;;;;;;12.52;3.42;;;;;;;13.36;95.52;101122.22;4936726;29;20516;-79
2023/08/10 01:46:47;;;;;;;8.40;3.30;;;;;;;13.33;95.45;101121.53;4914009;29;20114;-79
2023/08/10 01:49:59;;;;;;;6.50;3.80;;;;;;;13.32;95.68;101117.22;4924988;29;20051;-79
2023/08/10 01:53:12;;;;;;;7.60;3.10;;;;;;;13.35;95.60;101111.81;4913597;29;20465;-79
2023/08/10 01:56:15;;;;;;;10.35;4.68;;;;;;;13.31;96.03;101115.53;4936366;29;20099;-79
2023/08/10 01:59:19;;;;;;;15.05;4.78;;;;;;;13.35;95.92;101106.56;4936393;29;20063;-79
2023/08/10 02:02:23;;;;;;;13.10;4.72;;;;;;;13.44;96.16;101106.06;4935886;29;20046;-79
2023/08/10 02:05:27;;;;;;;8.82;4.93;;;;;;;13.41;95.61;101103.59;4924161;29;20038;-79
2023/08/10 02:08:32;;;;;;;9.85;4.72;;;;;;;13.40;95.66;101115.88;4936205;29;20167;-79
2023/08/10 02:11:35;;;;;;;9.07;5.00;;;;;;;13.40;95.55;101102.75;4923769;29;20126;-80
2023/08/10 02:14:39;;;;;;;;;;;;;;;13.32;96.26;101109.34;4924654;29;20075;-79
2023/08/10 02:17:43;;;;;;;10.18;5.78;;;;;;;13.42;95.80;101111.38;4924130;29;19925;-79
2023/08/10 02:20:46;;;;;;;12.63;4.95;;;;;;;13.38;95.87;101115.09;4935994;29;20078;-80
2023/08/10 02:23:53;;;;;;;14.32;5.07;;;;;;;13.46;95.53;101109.41;4935880;29;20138;-80
2023/08/10 02:26:58;;;;;;;13.50;4.60;;;;;;;13.44;95.34;101103.41;4935716;29;20039;-79
2023/08/10 02:30:02;;;;;;;9.90;4.45;;;;;;;13.32;95.70;101101.47;4923894;29;20112;-80
2023/08/10 02:33:05;;;;;;;10.75;4.80;;;;;;;13.26;95.87;101092.97;4935710;29;20054;-79
2023/08/10 02:36:09;;;;;;;10.35;3.90;;;;;;;13.31;95.89;101098.00;4923751;29;20093;-78
2023/08/10 02:39:12;;;;;;;9.73;4.65;;;;;;;13.33;95.44;101097.91;4935524;29;20137;-78
2023/08/10 02:42:15;;;;;;;9.40;4.50;;;;;;;13.24;96.14;101101.81;4935470;29;20043;-79
2023/08/10 02:45:19;;;;;;;10.52;4.00;;;;;;;13.20;96.51;101101.16;4923561;29;20463;-79
2023/08/10 02:48:22;;;;;;;9.60;5.10;;;;;;;13.04;97.25;101098.50;4935228;29;20046;-79
2023/08/10 02:51:26;;;;;;;18.50;5.28;;;;;;;13.10;97.25;101107.84;4935287;29;20121;-78
2023/08/10 02:54:29;;;;;;;9.00;4.05;;;;;;;13.23;96.32;101110.66;4935285;29;20041;-78
2023/08/10 02:57:35;;;;;;;11.35;4.07;;;;;;;13.21;95.58;101105.50;4935184;29;20054;-78
2023/08/10 03:00:41;;;;;;;16.45;4.75;;;;;;;12.94;96.31;101101.72;4923878;29;20522;-78
2023/08/10 03:03:48;;;;;;;7.32;3.60;;;;;;;13.01;96.07;101100.44;4935073;29;20102;-78
2023/08/10 03:06:53;;;;;;;16.45;3.90;;;;;;;13.08;96.11;101099.22;4923472;29;20573;-79
2023/08/10 03:09:58;;;;;;;5.47;3.60;;;;;;;13.13;95.96;101098.94;4935181;29;20055;-79
2023/08/10 03:13:04;;;;;;;14.32;3.65;;;;;;;13.12;95.64;101095.47;4922603;29;20122;-79
2023/08/10 03:16:09;;;;;;;9.80;3.38;;;;;;;13.19;95.23;101102.09;4923246;29;20078;-79
2023/08/10 03:19:14;;;;;;;14.65;3.30;;;;;;;13.23;95.06;101097.50;4923267;29;20156;-79
2023/08/10 03:22:17;;;;;;;;;;;;;;;13.21;95.13;101100.25;4923652;29;20094;-77
2023/08/10 03:25:22;;;;;;;8.45;3.10;;;;;;;13.22;94.85;101107.19;4923309;29;19962;-79
2023/08/10 03:28:28;;;;;;;5.22;2.95;;;;;;;13.09;94.98;101105.31;4934994;29;20413;-79
2023/08/10 03:31:33;;;;;;;11.25;3.10;;;;;;;13.13;94.87;101107.66;4923461;29;20083;-79
2023/08/10 03:34:38;;;;;;;9.05;3.67;;;;;;;13.11;94.88;101113.94;4923293;29;20079;-79
2023/08/10 03:37:42;;;;;;;6.53;3.10;;;;;;;13.07;94.87;101122.91;4934885;29;20465;-80
2023/08/10 03:40:46;;;;;;;12.82;3.22;;;;;;;13.04;95.02;101106.38;4934897;29;20067;-80
2023/08/10 03:43:51;;;;;;;11.77;3.42;;;;;;;12.92;94.70;101109.69;4923186;29;20094;-80
2023/08/10 03:46:56;;;;;;;10.60;3.10;;;;;;;12.90;95.76;101121.19;4923129;29;20054;-80
2023/08/10 03:50:00;;;;;;;10.98;3.63;;;;;;;12.72;96.32;101126.44;4923148;29;20122;-79
2023/08/10 03:53:04;;;;;;;6.95;3.28;;;;;;;12.93;96.63;101121.03;4912208;29;20082;-79
2023/08/10 03:56:07;;;;;;;4.00;2.60;;;;;;;13.01;96.15;101124.91;4934899;29;20484;-78
2023/08/10 03:59:12;;;;;;;8.63;2.95;;;;;;;13.00;95.84;101119.75;4922973;29;20042;-78
2023/08/10 04:02:16;;;;;;;10.68;2.53;;;;;;;13.07;96.25;101128.16;4923033;29;20095;-78
2023/08/10 04:05:21;;;;;;;9.02;2.55;;;;;;;13.05;95.56;101123.00;4934543;29;20071;-79
2023/08/10 04:08:25;;;;;;;8.27;2.80;;;;;;;13.01;95.51;101127.53;4933261;29;20528;-78
2023/08/10 04:11:28;;;;;;;8.70;3.03;;;;;;;13.00;95.55;101123.22;4931996;29;20055;-79
2023/08/10 04:14:33;;;;;;;10.07;3.17;;;;;;;13.06;95.80;101127.31;4921082;29;20434;-79
2023/08/10 04:17:38;;;;;;;9.10;3.63;;;;;;;13.09;95.31;101132.41;4932651;29;20149;-79
2023/08/10 04:20:41;;;;;;;5.97;2.53;;;;;;;13.04;95.76;101129.16;4920925;29;20079;-79
2023/08/10 04:23:46;;;;;;;6.55;2.65;;;;;;;13.05;95.80;101138.75;4932711;29;20426;-79
2023/08/10 04:26:49;;;;;;;9.88;3.00;;;;;;;13.05;96.11;101138.75;4936742;29;20146;-79
2023/08/10 04:29:54;;;;;;;8.13;2.80;;;;;;;13.04;95.59;101144.91;4936007;29;20106;-77
2023/08/10 04:32:58;;;;;;;10.75;2.92;;;;;;;13.01;96.26;101147.69;4936238;29;20126;-75
2023/08/10 04:36:03;;;;;;;4.88;2.03;;;;;;;12.97;96.25;101154.88;4936019;29;20074;-77
2023/08/10 04:39:07;;;;;;;7.30;3.22;;;;;;;12.90;96.22;101156.16;4936300;29;20066;-75
2023/08/10 04:42:10;;;;;;;6.85;2.80;;;;;;;12.86;96.36;101149.38;4936217;29;20050;-76
2023/08/10 04:45:14;;;;;;;5.47;2.58;;;;;;;12.80;96.54;101160.19;4935813;29;20109;-76
2023/08/10 04:48:17;;;;;;;10.40;3.85;;;;;;;12.74;96.97;101156.09;4936119;29;20103;-76
2023/08/10 04:51:21;;;;;;;7.25;3.10;;;;;;;12.75;96.88;101156.94;4935450;29;20113;-76
2023/08/10 04:54:27;;;;;;;4.38;2.85;;;;;;;12.73;97.46;101164.88;4935275;29;20054;-76
2023/08/10 04:57:32;;;;;;;6.05;2.92;;;;;;;12.80;97.56;101163.66;4933374;29;20110;-77
2023/08/10 05:00:36;;;;;;;10.68;3.20;;;;;;;12.89;97.60;101171.94;4934944;29;20410;-77
2023/08/10 05:03:40;;;;;;;10.80;2.80;;;;;;;12.82;97.93;101174.03;4935341;29;20130;-77
2023/08/10 05:06:46;;;;;;;7.55;2.60;;;;;;;12.91;97.64;101176.19;4932863;29;20522;-76
2023/08/10 05:09:50;;;;;;;7.00;2.70;;;;;;;13.03;96.99;101175.56;4933010;29;20126;-76
2023/08/10 05:12:56;;;;;;;9.70;3.45;;;;;;;13.13;96.08;101169.84;4887071;29;20593;-76
2023/08/10 05:16:01;;;;;;;10.20;3.15;;;;;;;13.13;95.70;101165.44;4896190;29;20244;-76
2023/08/10 05:19:05;;;;;;;5.03;3.05;;;;;;;13.15;95.30;101168.00;4896087;29;20226;-76
2023/08/10 05:22:13;;;;;;;10.27;3.17;;;;;;;13.20;95.00;101169.44;4898171;29;20059;-76
2023/08/10 05:25:19;;;;;;;7.18;3.50;;;;;;;13.27;94.98;101169.97;4897818;29;20056;-76
2023/08/10 05:28:26;;;;;;;8.32;2.95;;;;;;;13.35;94.63;101169.59;4897719;29;20482;-76
2023/08/10 05:31:29;;;;;;;9.00;2.55;;;;;;;13.30;94.53;101164.56;4897053;29;20047;-76
2023/08/10 05:34:33;;;;;;;9.02;2.42;;;;;;;13.36;94.42;101171.28;4895263;29;20132;-76
2023/08/10 05:37:38;;;;;;;5.53;2.70;;;;;;;13.42;94.58;101170.94;4897739;29;20460;-76
2023/08/10 05:40:44;;;;;;;8.77;2.60;;;;;;;13.36;94.96;101181.78;4896272;29;20091;-76
2023/08/10 05:43:52;;;;;;;9.07;2.60;;;;;;;13.17;95.40;101185.34;4897361;29;20084;-76
2023/08/10 05:46:56;;;;;;;14.48;3.30;;;;;;;13.31;96.17;101192.53;4896486;29;20048;-76
2023/08/10 05:49:59;;;;;;;10.90;3.28;;;;;;;13.46;95.66;101178.59;4895060;29;20123;-76
2023/08/10 05:53:03;;;;;;;5.43;2.45;;;;;;;13.20;95.23;101181.72;4896264;29;20238;-76
2023/08/10 05:56:08;;;;;;;3.10;1.95;;;;;;;13.40;95.50;101183.31;4896730;29;20119;-76
2023/08/10 05:59:11;;;;;;;10.55;2.58;;;;;;;13.57;95.87;101185.88;4895678;29;20243;-76
2023/08/10 06:02:15;;;;;;;7.45;2.60;;;;;;;13.68;95.58;101182.66;4895456;29;20124;-76
2023/08/10 06:05:18;;;;;;;;;;;;;;;13.68;94.95;101180.88;4906297;29;20056;-77
2023/08/10 06:08:22;;;;;;;5.78;2.38;;;;;;;13.74;94.13;101187.59;4894814;29;20451;-76
2023/08/10 06:11:25;;;;;;;3.92;2.67;;;;;;;13.69;93.79;101184.38;4904616;29;20086;-76
2023/08/10 06:14:30;;;;;;;4.60;2.60;;;;;;;13.39;95.86;101190.34;4934324;29;20099;-76
2023/08/10 06:17:33;;;;;;;6.40;2.10;;;;;;;13.66;96.20;101182.75;4933957;29;20051;-75
2023/08/10 06:20:36;;;;;;;5.47;2.88;;;;;;;13.81;95.27;101193.34;4934150;29;20042;-76
2023/08/10 06:23:39;;;;;;;9.35;2.58;;;;;;;13.69;96.25;101190.47;4922321;29;20050;-77
2023/08/10 06:26:43;;;;;;;7.07;2.80;;;;;;;13.85;95.62;101187.84;4934788;29;20123;-77
2023/08/10 06:29:48;;;;;;;4.85;2.42;;;;;;;13.90;95.60;101182.34;4922438;29;20106;-77
2023/08/10 06:32:52;;;;;;;4.30;2.28;;;;;;;14.06;95.49;101184.94;4934375;29;20062;-77
2023/08/10 06:35:56;;;;;;;7.47;2.50;;;;;;;13.96;95.32;101188.09;4934449;29;20106;-77
2023/08/10 06:39:00;;;;;;;7.65;2.65;;;;;;;14.15;95.64;101182.66;4933310;29;20504;-77
2023/08/10 06:42:05;;;;;;;11.07;2.78;;;;;;;14.15;94.97;101182.66;4921759;29;20130;-77
2023/08/10 06:45:12;;;;;;;5.35;2.75;;;;;;;14.10;95.18;101183.84;4922826;29;20047;-76
2023/08/10 06:48:15;;;;;;;4.90;2.92;;;;;;;14.05;95.52;101186.75;4932957;29;20074;-76
2023/08/10 06:51:22;;;;;;;6.40;2.90;;;;;;;14.12;95.65;101185.44;4932614;29;20078;-75
2023/08/10 06:54:31;;;;;;;5.45;2.47;;;;;;;14.26;95.68;101189.91;4932806;29;20057;-75
2023/08/10 06:57:36;;;;;;;5.13;2.72;;;;;;;14.32;95.47;101189.56;4932686;29;20059;-75
2023/08/10 07:00:39;;;;;;;8.15;2.80;;;;;;;14.37;95.46;101190.16;4932991;29;20098;-75
2023/08/10 07:03:46;;;;;;;3.85;2.60;;;;;;;14.42;94.86;101189.88;4932448;29;20105;-75
2023/08/10 07:06:51;;;;;;;6.65;2.70;;;;;;;14.55;95.00;101190.94;4933864;29;20175;-73
2023/08/10 07:09:54;;;;;;;6.53;3.05;;;;;;;14.67;94.48;101196.41;4933589;29;20090;-79
2023/08/10 07:13:03;;;;;;;4.35;2.92;;;;;;;14.80;94.00;101185.03;4932389;29;20414;-80
2023/08/10 07:16:06;;;;;;;9.50;2.90;;;;;;;14.92;93.28;101194.00;4933375;29;20202;-78
2023/08/10 07:19:11;;;;;;;6.55;3.40;;;;;;;15.05;93.07;101202.84;4932876;29;20417;-78
2023/08/10 07:22:14;;;;;;;5.32;2.83;;;;;;;15.17;92.43;101203.91;4933037;29;20070;-77
2023/08/10 07:25:19;;;;;;;7.63;3.28;;;;;;;15.26;91.95;101205.16;4934112;29;20051;-80
2023/08/10 07:28:23;;;;;;;7.30;2.70;;;;;;;15.35;91.94;101208.06;4932659;29;20130;-80
2023/08/10 07:31:31;;;;;;;7.03;2.75;;;;;;;15.44;91.65;101204.00;4933504;29;20055;-78
2023/08/10 07:34:35;;;;;;;6.07;3.20;;;;;;;15.55;89.65;101204.19;4934128;29;20106;-81
2023/08/10 07:37:40;;;;;;;4.90;2.80;;;;;;;15.65;89.09;101193.91;4933338;29;20086;-82
2023/08/10 07:40:47;;;;;;;6.18;2.60;;;;;;;15.73;87.67;101204.00;4933443;29;20126;-81
2023/08/10 07:43:51;;;;;;;7.88;2.72;;;;;;;15.78;86.19;101201.94;4933200;29;20055;-82
2023/08/10 07:46:55;;;;;;;4.93;2.30;;;;;;;15.88;84.60;101205.69;4934178;29;20062;-82
2023/08/10 07:49:58;;;;;;;7.00;2.80;;;;;;;15.97;83.96;101202.44;4933692;29;20055;-77
2023/08/10 07:53:03;;;;;;;9.77;3.08;;;;;;;16.04;83.03;101200.25;4933657;29;20050;-79
2023/08/10 07:56:07;;;;;;;11.95;2.72;;;;;;;16.12;81.96;101198.00;4933733;29;20110;-77
2023/08/10 07:59:12;;;;;;;11.55;2.65;;;;;;;16.21;82.51;101193.91;4934940;29;20047;-78
2023/08/10 08:02:17;;;;;;;5.53;2.85;;;;;;;16.30;83.25;101190.66;4937020;29;20046;-77
2023/08/10 08:05:21;;;;;;;5.82;2.08;;;;;;;16.37;82.82;101186.69;4936611;29;20113;-80
2023/08/10 08:08:24;;;;;;;5.20;1.90;;;;;;;16.47;82.45;101193.03;4938063;29;20103;-81
2023/08/10 08:11:29;;;;;;;6.30;2.90;;;;;;;16.48;78.65;101189.44;4935799;29;20124;-80
2023/08/10 08:14:35;;;;;;;7.38;2.40;;;;;;;16.60;79.68;101181.66;4936824;29;20579;-82
2023/08/10 08:18:18;;;;;;;7.53;2.40;;;;;;;16.65;79.54;101177.75;4936540;29;20114;-80
2023/08/10 08:21:27;;;;;;;7.95;2.45;;;;;;;16.70;78.80;101175.66;4936977;29;20094;-79
2023/08/10 08:24:32;;;;;;;4.93;2.33;;;;;;;16.76;77.74;101171.78;4926058;29;20062;-81
2023/08/10 08:27:38;;;;;;;5.53;2.20;;;;;;;16.82;75.98;101181.09;4936086;29;20178;-72
2023/08/10 08:30:47;;;;;;;5.47;2.30;;;;;;;16.89;74.31;101170.00;4936558;29;20462;-74
2023/08/10 08:33:57;;;;;;;6.93;2.33;;;;;;;16.94;74.92;101170.53;4936313;29;20311;-84
2023/08/10 08:37:04;;;;;;;;;;;;;;;17.04;71.45;101169.88;4936874;29;20403;-80
2023/08/10 08:40:10;;;;;;;7.63;2.30;;;;;;;17.05;72.79;101167.16;4936790;29;20065;-81
2023/08/10 08:43:15;;;;;;;4.05;2.10;;;;;;;17.10;72.56;101165.03;4936550;29;20059;-81
2023/08/10 08:46:27;;;;;;;5.88;2.25;;;;;;;17.34;72.73;101157.19;4936796;29;20046;-81
2023/08/10 08:49:33;;;;;;;5.85;2.38;;;;;;;17.39;72.84;101144.50;4936762;29;20058;-79
2023/08/10 08:52:39;;;;;;;4.05;1.80;;;;;;;17.33;72.08;101155.50;4936649;29;20055;-78
2023/08/10 08:55:47;;;;;;;6.00;2.58;;;;;;;17.38;72.48;101150.72;4935941;29;20094;-78
2023/08/10 08:58:52;;;;;;;6.30;2.33;;;;;;;17.50;71.71;101145.53;4936698;29;20110;-77
2023/08/10 09:01:58;;;;;;;12.15;2.75;;;;;;;17.46;71.44;101126.38;4936642;29;20633;-79
2023/08/10 09:05:02;;;;;;;7.35;2.28;;;;;;;17.54;72.79;101120.53;4936256;29;20449;-79
2023/08/10 09:08:08;;;;;;;7.10;2.22;;;;;;;17.59;70.79;101119.25;4935756;29;20417;-79
2023/08/10 09:11:14;;;;;;;4.25;2.08;;;;;;;17.66;70.63;101117.84;4934627;29;20414;-77
2023/08/10 09:14:17;;;;;;;10.80;2.75;;;;;;;17.71;68.18;101122.81;4935860;29;20509;-74
2023/08/10 09:17:21;;;;;;;7.88;2.50;;;;;;;17.72;68.53;101126.31;4935607;29;20094;-75
2023/08/10 09:20:26;;;;;;;7.50;2.22;;;;;;;17.78;68.97;101124.09;4935764;29;20055;-75
2023/08/10 09:23:33;;;;;;;6.30;2.15;;;;;;;17.83;67.91;101127.22;4935554;29;20070;-75
2023/08/10 09:26:40;;;;;;;6.38;1.90;;;;;;;17.93;67.21;101115.97;4934355;29;20050;-75
2023/08/10 09:29:45;;;;;;;7.45;2.50;;;;;;;17.94;67.46;101118.53;4934871;29;20051;-76
2023/08/10 09:32:50;;;;;;;4.18;1.88;;;;;;;18.06;67.64;101108.81;4934947;29;20058;-78
2023/08/10 09:35:58;;;;;;;5.28;1.65;;;;;;;18.14;67.52;101114.38;4934760;29;20047;-76
2023/08/10 09:39:01;;;;;;;7.55;2.75;;;;;;;18.16;64.90;101112.47;4934071;29;20354;-71
2023/08/10 09:42:05;;;;;;;6.13;2.03;;;;;;;18.20;64.84;101111.28;4933844;29;20054;-75
2023/08/10 09:45:13;;;;;;;8.35;2.10;;;;;;;18.23;63.91;101103.13;4935077;29;20134;-72
2023/08/10 09:48:16;;;;;;;4.45;1.45;;;;;;;18.25;62.97;101095.03;4935205;29;20078;-73
2023/08/10 09:51:23;;;;;;;4.78;1.92;;;;;;;18.30;63.20;101095.56;4934930;29;20078;-72
2023/08/10 09:54:27;;;;;;;15.13;4.05;;;;;;;18.39;62.29;101100.16;4934838;29;20051;-74
2023/08/10 09:57:33;;;;;;;9.40;1.90;;;;;;;18.57;58.69;101100.56;4934352;29;20126;-78
2023/08/10 10:00:39;;;;;;;6.18;1.80;;;;;;;18.65;56.71;101098.16;4934838;29;20078;-73
2023/08/10 10:03:43;;;;;;;6.10;2.28;;;;;;;18.81;56.99;101098.69;4934986;29;20091;-74
2023/08/10 10:06:48;;;;;;;6.63;1.95;;;;;;;18.90;55.07;101097.13;4934649;29;20115;-77
2023/08/10 10:09:51;;;;;;;4.88;1.60;;;;;;;18.99;53.37;101087.63;4934763;29;20163;-75
2023/08/10 10:12:59;;;;;;;3.58;1.40;;;;;;;19.22;52.26;101096.41;4934434;29;20132;-77
2023/08/10 10:16:07;;;;;;;6.72;2.22;;;;;;;19.16;51.39;101088.94;4934689;29;20468;-75
2023/08/10 10:19:10;;;;;;;5.40;1.38;;;;;;;19.15;51.32;101085.44;4934836;29;20049;-77
2023/08/10 10:22:16;;;;;;;5.45;1.67;;;;;;;19.22;52.48;101085.78;4933475;29;20051;-77
2023/08/10 10:25:20;;;;;;;6.18;1.75;;;;;;;19.35;49.49;101083.00;4934328;29;20081;-74
2023/08/10 10:28:24;;;;;;;4.20;1.42;;;;;;;19.29;48.83;101073.72;4934409;29;20525;-72
2023/08/10 10:31:34;;;;;;;7.15;1.92;;;;;;;19.31;50.00;101069.16;4933377;29;20400;-73
2023/08/10 10:34:40;;;;;;;4.90;1.83;;;;;;;19.36;50.42;101071.41;4934439;29;20561;-73
2023/08/10 10:37:57;;;;;;;5.18;1.42;;;;;;;19.53;47.11;101070.91;4933079;29;20047;-74
2023/08/10 10:41:27;;;;;;;5.15;1.40;;;;;;;19.82;46.32;101078.34;4933976;29;20107;-76
2023/08/10 10:45:14;;;;;;;3.92;1.30;;;;;;;19.93;45.71;101078.25;4934275;29;20146;-72
2023/08/10 10:48:33;;;;;;;4.07;1.30;;;;;;;19.88;45.15;101083.97;4933993;29;20593;-71
2023/08/10 10:51:51;;;;;;;5.13;1.48;;;;;;;19.86;44.13;101071.78;4932985;29;20099;-71
2023/08/10 10:55:04;;;;;;;6.18;1.55;;;;;;;19.82;45.79;101063.25;4934033;29;20058;-78
2023/08/10 10:59:34;;;;;;;5.80;1.30;;;;;;;19.86;43.78;101069.13;4910549;29;20102;-77
2023/08/10 11:02:49;;;;;;;5.10;1.30;;;;;;;19.90;40.60;101065.25;4934125;29;20055;-77
2023/08/10 11:05:53;;;;;;;4.75;1.77;;;;;;;19.82;42.21;101070.38;4936521;29;20054;-76
2023/08/10 11:08:57;;;;;;;3.13;1.35;;;;;;;19.85;41.87;101057.69;4945586;28;20469;-74
2023/08/10 11:12:00;;;;;;;3.17;1.30;;;;;;;19.98;42.35;101060.16;4943474;28;20105;-74
2023/08/10 11:15:09;;;;;;;3.80;1.23;;;;;;;20.41;43.98;101060.00;4944146;28;20063;-75
2023/08/10 11:18:32;;;;;;;2.78;1.00;;;;;;;20.28;43.09;101053.22;4941967;28;20055;-74
2023/08/10 11:21:56;;;;;;;2.47;1.10;;;;;;;20.36;43.30;101048.13;4942744;28;20078;-74
2023/08/10 11:25:01;;;;;;;3.03;1.05;;;;;;;20.34;42.46;101047.41;4943714;28;20046;-75
2023/08/10 11:28:08;;;;;;;2.30;1.20;;;;;;;20.42;39.52;101043.13;4940677;28;20556;-73
2023/08/10 11:31:14;;;;;;;2.38;1.13;;;;;;;20.50;40.92;101050.44;4952661;28;20047;-73
2023/08/10 11:34:17;;;;;;;2.90;1.30;;;;;;;20.55;41.16;101039.44;4953934;28;20114;-73
2023/08/10 11:37:28;;;;;;;;;;;;;;;20.62;39.92;101044.09;4943139;28;20091;-73
2023/08/10 11:40:31;;;;;;;3.15;1.17;;;;;;;20.84;40.46;101035.09;4918651;29;20014;-74
2023/08/10 11:43:36;;;;;;;3.88;1.42;;;;;;;20.79;40.01;101034.66;4918409;29;20130;-75
2023/08/10 11:46:39;;;;;;;2.60;1.33;;;;;;;20.88;41.17;101025.03;4918301;29;20110;-76
2023/08/10 11:49:42;;;;;;;5.72;1.30;;;;;;;20.90;40.32;101034.56;4906538;29;20051;-75
2023/08/10 11:52:52;;;;;;;3.13;1.02;;;;;;;20.98;40.55;101041.03;4918707;29;20100;-74
2023/08/10 11:55:57;;;;;;;3.33;1.10;;;;;;;21.12;40.15;101033.50;4918645;29;20059;-74
2023/08/10 11:59:14;;;;;;;4.65;1.10;;;;;;;21.11;39.11;101020.34;4918253;29;20050;-74
2023/08/10 12:02:17;;;;;;;5.25;1.33;;;;;;;21.12;40.01;101020.22;4917965;29;20409;-74
2023/08/10 12:05:38;;;;;;;3.63;1.52;;;;;;;21.25;39.38;101013.78;4918276;29;20062;-74
2023/08/10 12:08:46;;;;;;;3.17;1.20;;;;;;;21.67;38.76;101011.78;4916859;29;20047;-75
2023/08/10 12:11:55;;;;;;;3.08;1.10;;;;;;;21.86;38.96;101013.59;4917775;29;20395;-75
2023/08/10 12:15:11;;;;;;;3.33;1.02;;;;;;;21.78;39.82;101013.44;4906214;29;20549;-74
2023/08/10 12:18:16;;;;;;;3.28;1.38;;;;;;;21.74;38.81;101006.72;4918053;29;20099;-75
2023/08/10 12:21:21;;;;;;;2.35;1.17;;;;;;;21.89;40.65;101015.97;4917929;29;20116;-75
2023/08/10 12:24:27;;;;;;;2.53;1.15;;;;;;;21.84;40.07;101012.88;4917872;29;20055;-74
2023/08/10 12:27:31;;;;;;;4.28;1.17;;;;;;;22.00;39.76;101018.44;4943692;28;20376;-75
2023/08/10 12:30:35;;;;;;;3.22;1.23;;;;;;;22.25;38.64;101021.53;4945308;28;20489;-75
2023/08/10 12:33:41;;;;;;;3.30;1.15;;;;;;;22.20;38.79;101023.78;4943116;28;20047;-75
2023/08/10 12:36:48;;;;;;;6.80;0.90;;;;;;;22.45;38.15;101023.16;4945197;28;20630;-75
2023/08/10 12:39:56;;;;;;;2.22;0.90;;;;;;;22.52;35.63;101018.91;4946048;28;20087;-75
2023/08/10 12:43:00;;;;;;;5.25;1.50;;;;;;;22.54;36.00;101021.44;4939916;29;20095;-74
2023/08/10 12:46:08;;;;;;;7.25;0.98;;;;;;;22.58;36.98;101008.66;4927095;29;20086;-75
2023/08/10 12:49:11;;;;;;;2.40;1.20;;;;;;;22.74;37.64;101016.88;4936002;29;20497;-75
2023/08/10 12:52:19;;;;;;;3.15;1.17;;;;;;;22.98;36.66;101019.03;4925277;29;20091;-75
2023/08/10 12:55:22;;;;;;;3.60;1.33;;;;;;;23.11;36.85;101008.84;4936547;29;20520;-74
2023/08/10 12:58:27;;;;;;;2.92;1.23;;;;;;;23.18;34.48;101004.59;4936841;29;20478;-80
2023/08/10 13:01:33;;;;;;;3.00;1.23;;;;;;;23.24;34.69;101007.66;4924628;29;20054;-84
2023/08/10 13:04:43;;;;;;;6.50;1.20;;;;;;;23.39;32.56;100996.31;4935087;29;20547;-83
2023/08/10 13:07:46;;;;;;;2.90;1.45;;;;;;;23.51;33.68;100998.72;4936393;29;20521;-83
2023/08/10 13:10:50;;;;;;;2.40;1.05;;;;;;;23.81;33.45;100995.69;4924071;29;20130;-83
2023/08/10 13:13:53;;;;;;;3.70;1.42;;;;;;;24.10;31.50;101005.25;4935847;29;20134;-83
2023/08/10 13:17:28;;;;;;;1.95;0.95;;;;;;;24.25;32.01;101008.19;4930084;29;20051;-83
2023/08/10 13:20:32;;;;;;;4.25;1.10;;;;;;;24.36;30.32;101016.78;4945706;28;20045;-83
2023/08/10 13:23:36;;;;;;;2.30;1.17;;;;;;;24.45;30.32;101012.34;4950599;28;20536;-83
2023/08/10 13:26:40;;;;;;;3.78;1.48;;;;;;;24.71;29.35;101009.63;4955124;28;20174;-84
2023/08/10 13:29:46;;;;;;;10.52;1.42;;;;;;;24.70;29.38;101015.16;4954798;28;20460;-78
2023/08/10 13:32:49;;;;;;;3.50;1.50;;;;;;;25.06;29.71;101002.41;4955294;28;20050;-84
2023/08/10 13:35:52;;;;;;;2.72;1.27;;;;;;;25.31;29.74;101002.50;4954923;28;20163;-84
2023/08/10 13:39:00;;;;;;;2.97;1.42;;;;;;;25.61;29.74;101006.38;4943335;28;20054;-85
2023/08/10 13:42:06;;;;;;;4.47;1.50;;;;;;;25.83;29.59;101004.91;4954879;28;20138;-84
2023/08/10 13:45:10;;;;;;;4.85;1.50;;;;;;;26.10;27.94;101007.25;4943085;29;20575;-85
2023/08/10 13:48:13;;;;;;;2.65;1.40;;;;;;;26.24;27.58;101012.91;4954944;28;20050;-84
2023/08/10 13:51:16;;;;;;;2.63;1.40;;;;;;;25.71;26.70;101015.91;4954971;28;20074;-83
2023/08/10 13:54:20;;;;;;;3.53;1.38;;;;;;;26.14;26.81;101003.22;4951015;28;20083;-83
2023/08/10 13:57:29;;;;;;;3.33;1.30;;;;;;;26.47;27.88;101003.13;4941923;28;20435;-83
2023/08/10 14:00:40;;;;;;;5.38;1.30;;;;;;;26.55;26.56;100997.78;4922960;28;20054;-84
2023/08/10 14:04:12;;;;;;;3.42;1.10;;;;;;;26.81;26.11;100994.81;4943833;28;20046;-83
2023/08/10 14:07:36;;;;;;;2.97;1.55;;;;;;;27.49;25.85;100992.41;4953133;28;20133;-83
2023/08/10 14:10:42;;;;;;;4.70;1.55;;;;;;;28.42;25.33;100994.78;4954294;29;20134;-79
2023/08/10 14:13:45;;;;;;;3.08;1.60;;;;;;;30.42;23.35;100986.00;4915284;29;20063;-83
2023/08/10 14:16:51;;;;;;;5.38;1.52;;;;;;;33.11;20.94;100973.75;4915934;29;20071;-80
2023/08/10 14:19:56;;;;;;;6.03;1.50;;;;;;;35.13;19.89;100972.38;4915970;29;20594;-82
2023/08/10 14:22:59;;;;;;;3.80;1.42;;;;;;;35.80;19.55;100983.03;4915867;29;20058;-74
2023/08/10 14:26:03;;;;;;;2.90;1.48;;;;;;;34.53;18.11;100989.47;4915796;29;20043;-82